Rechercher aéroport 
image banner adimage banner adimage banner ad
image banner ad

EKVG - Vagar

Situé à All Faeroe Islands, Faroe Islands

ICAO - EKVG, IATA - FAE

Données fournies par Airmate  

Information générale

Coordonnées: N62°3'49" W7°16'38"
Élévation : 280 feet MSL.
Variation magnétique : -6.8° East
Voir autres Aéroports à (unassigned)

Données opérationnelles

Special qualification required
Heure actuelle UTC:
Heure actuelle locale:
Météo
METAR: EKVG 180650Z AUTO 19009KT 9999 FEW038/// FEW054/// BKN130/// 10/09 Q1008
TAF: TAF EKVG 180522Z 1806/1815 23006KT 9999 BKN028 BECMG 1809/1811 15010KT
Voir NOTAMs / SUP AIP / TFR affectant cet aéroport [VIEW]
Fréquences de communication: [VIEW]

Pistes:

Identifiant RWYQFULongueur (ft)Largeur (ft)SurfaceLDA (ft)
12118°590298ASPH5902
30298°590298ASPH5902

Coordonnées de l'aéroport

Adresse: All Faeroe Islands Faroe Islands

Vue satellite de EKVG